Time;durP1;ratioP1;P1;durP2;ratioP2;P2;SDS_P1;SDS_P2;PMS_P1;PMS_P2;Temp;Humidity;BMP_temperature;BMP_pressure;BME280_temperature;BME280_humidity;BME280_pressure;Samples;Min_cycle;Max_cycle;Signal;HPM_P1;HPM_P2
2023/07/08 00:00:29;;;;;;;1.50;0.73;;;23.70;93.40;;;;;;5096243;28;20572;-83
2023/07/08 00:02:59;;;;;;;0.57;0.47;;;23.70;93.20;;;;;;5110813;27;20230;-84
2023/07/08 00:05:28;;;;;;;0.30;0.30;;;23.70;93.10;;;;;;5091646;27;20190;-83
2023/07/08 00:07:56;;;;;;;0.52;0.52;;;23.70;93.00;;;;;;5096703;27;20228;-84
2023/07/08 00:10:27;;;;;;;0.60;0.60;;;23.70;93.00;;;;;;5107198;27;20472;-81
2023/07/08 00:12:57;;;;;;;0.80;0.63;;;23.70;93.00;;;;;;5093959;28;20197;-83
2023/07/08 00:15:30;;;;;;;0.55;0.32;;;23.70;92.80;;;;;;5091766;28;20702;-84
2023/07/08 00:18:00;;;;;;;0.28;0.28;;;23.70;92.80;;;;;;5099180;27;20276;-82
2023/07/08 00:20:40;;;;;;;2.17;1.50;;;23.70;92.80;;;;;;5103495;27;20569;-83
2023/07/08 00:23:09;;;;;;;0.85;0.77;;;23.70;92.90;;;;;;5124610;27;20220;-83
2023/07/08 00:25:38;;;;;;;0.30;0.30;;;23.70;92.90;;;;;;5122399;27;20287;-84
2023/07/08 00:28:11;;;;;;;0.32;0.30;;;23.70;92.80;;;;;;5105091;27;20200;-85
2023/07/08 00:30:39;;;;;;;0.20;0.20;;;23.70;92.70;;;;;;5133142;27;20181;-83
2023/07/08 00:33:09;;;;;;;0.32;0.32;;;23.80;92.70;;;;;;5115440;27;20200;-83
2023/07/08 00:35:40;;;;;;;0.45;0.45;;;23.80;92.90;;;;;;5108862;27;20219;-84
2023/07/08 00:38:15;;;;;;;0.35;0.35;;;23.70;93.00;;;;;;5107420;27;20765;-82
2023/07/08 00:40:52;;;;;;;1.02;0.73;;;23.70;93.30;;;;;;5117607;27;20265;-82
2023/07/08 00:43:25;;;;;;;2.45;0.50;;;23.70;93.20;;;;;;5111954;27;20203;-84
2023/07/08 00:46:05;;;;;;;1.08;0.57;;;23.70;93.30;;;;;;5112695;27;20280;-83
2023/07/08 00:48:37;;;;;;;1.27;0.60;;;23.70;93.60;;;;;;5109027;28;20201;-83
2023/07/08 00:51:08;;;;;;;0.93;0.43;;;23.70;93.60;;;;;;5121989;27;20211;-84
2023/07/08 00:53:38;;;;;;;4.43;1.83;;;23.70;93.50;;;;;;5097385;27;20442;-83
2023/07/08 00:56:11;;;;;;;0.55;0.50;;;23.70;93.40;;;;;;5128740;27;20203;-84
2023/07/08 00:58:44;;;;;;;0.68;0.68;;;23.70;93.40;;;;;;5113835;27;20227;-82
2023/07/08 01:01:13;;;;;;;0.65;0.65;;;23.80;93.50;;;;;;5112253;27;20182;-84
2023/07/08 01:03:50;;;;;;;0.40;0.40;;;23.80;93.50;;;;;;5108173;27;20551;-83
2023/07/08 01:06:20;;;;;;;0.45;0.45;;;23.80;93.40;;;;;;5112167;28;20176;-83
2023/07/08 01:08:52;;;;;;;0.47;0.47;;;23.80;93.50;;;;;;5089991;27;20232;-83
2023/07/08 01:11:22;;;;;;;0.98;0.73;;;23.80;93.50;;;;;;5107429;27;20534;-84
2023/07/08 01:13:53;;;;;;;0.70;0.50;;;23.80;93.60;;;;;;5115299;27;20200;-84
2023/07/08 01:16:23;;;;;;;0.30;0.30;;;23.80;93.60;;;;;;5124534;27;20284;-84
2023/07/08 01:18:53;;;;;;;0.70;0.70;;;23.80;93.50;;;;;;5106203;27;20189;-84
2023/07/08 01:21:33;;;;;;;0.35;0.35;;;23.80;93.40;;;;;;5126425;27;20300;-83
2023/07/08 01:24:05;;;;;;;0.50;0.50;;;23.90;93.30;;;;;;5103396;27;20181;-83
2023/07/08 01:26:36;;;;;;;0.73;0.73;;;23.90;93.30;;;;;;5090366;28;20578;-80
2023/07/08 01:29:07;;;;;;;0.55;0.55;;;23.90;93.30;;;;;;5108114;27;20182;-82
2023/07/08 01:31:36;;;;;;;0.50;0.30;;;23.80;93.40;;;;;;5107285;27;20189;-82
2023/07/08 01:34:05;;;;;;;1.73;0.70;;;23.90;93.40;;;;;;5093826;27;20318;-83
2023/07/08 01:36:39;;;;;;;1.35;0.63;;;23.90;93.30;;;;;;5111003;27;20201;-82
2023/07/08 01:39:13;;;;;;;1.25;0.60;;;23.80;93.40;;;;;;5110326;27;20569;-83
2023/07/08 01:41:41;;;;;;;2.03;1.33;;;23.90;93.30;;;;;;5121695;27;20198;-84
2023/07/08 01:44:22;;;;;;;0.63;0.50;;;23.80;93.20;;;;;;5100119;28;20193;-83
2023/07/08 01:46:52;;;;;;;0.68;0.68;;;23.80;93.10;;;;;;5094865;27;20184;-83
2023/07/08 01:49:21;;;;;;;1.05;0.47;;;23.90;93.10;;;;;;5096139;27;20186;-83
2023/07/08 01:51:50;;;;;;;0.20;0.20;;;23.90;93.00;;;;;;5089708;28;20285;-83
2023/07/08 01:54:21;;;;;;;5.85;0.50;;;23.90;93.00;;;;;;5098401;27;20748;-83
2023/07/08 01:56:55;;;;;;;0.40;0.40;;;23.90;92.90;;;;;;5090724;28;20190;-82
2023/07/08 01:59:23;;;;;;;0.60;0.60;;;23.90;92.90;;;;;;5116865;27;20553;-84
2023/07/08 02:01:54;;;;;;;0.45;0.30;;;23.90;92.80;;;;;;5116446;27;20198;-82
2023/07/08 02:04:24;;;;;;;0.10;0.10;;;23.90;92.70;;;;;;5106217;27;20197;-82
2023/07/08 02:06:54;;;;;;;0.20;0.20;;;23.90;92.70;;;;;;5091634;28;20208;-82
2023/07/08 02:09:25;;;;;;;1.35;0.98;;;23.90;92.60;;;;;;5089844;28;20240;-85
2023/07/08 02:11:53;;;;;;;0.75;0.75;;;23.90;92.60;;;;;;5091002;28;20202;-80
2023/07/08 02:14:22;;;;;;;0.50;0.38;;;23.90;92.70;;;;;;5115999;27;20193;-81
2023/07/08 02:16:50;;;;;;;3.83;0.90;;;23.90;92.70;;;;;;5089896;27;20306;-82
2023/07/08 02:19:21;;;;;;;1.13;1.05;;;23.90;92.80;;;;;;5110150;27;20284;-84
2023/07/08 02:21:51;;;;;;;0.50;0.40;;;23.90;92.70;;;;;;5124066;27;20275;-84
2023/07/08 02:24:22;;;;;;;2.50;1.08;;;23.90;93.00;;;;;;5091115;28;20189;-84
2023/07/08 02:26:51;;;;;;;0.32;0.32;;;23.90;92.70;;;;;;5119828;27;20650;-84
2023/07/08 02:29:20;;;;;;;0.93;0.88;;;23.90;92.80;;;;;;5117813;27;20193;-83
2023/07/08 02:31:48;;;;;;;1.75;0.90;;;23.90;92.90;;;;;;5096141;27;20204;-83
2023/07/08 02:34:17;;;;;;;0.52;0.50;;;23.90;92.80;;;;;;5101882;27;20199;-82
2023/07/08 02:36:46;;;;;;;1.58;0.60;;;23.80;92.90;;;;;;5103276;27;20344;-82
2023/07/08 02:39:14;;;;;;;0.65;0.50;;;23.80;92.90;;;;;;5099160;28;20200;-84
2023/07/08 02:41:42;;;;;;;0.60;0.60;;;23.80;92.90;;;;;;5104059;27;20207;-82
2023/07/08 02:44:12;;;;;;;0.47;0.47;;;23.80;93.00;;;;;;5094654;27;20190;-84
2023/07/08 02:46:41;;;;;;;0.63;0.63;;;23.80;93.10;;;;;;5113931;27;20196;-83
2023/07/08 02:49:09;;;;;;;0.47;0.45;;;23.80;93.60;;;;;;5102100;27;20204;-83
2023/07/08 02:51:38;;;;;;;0.40;0.40;;;23.80;93.20;;;;;;5106313;27;20200;-82
2023/07/08 02:54:07;;;;;;;0.80;0.77;;;23.80;93.30;;;;;;5090866;28;20544;-84
2023/07/08 02:56:36;;;;;;;1.65;0.88;;;23.70;93.30;;;;;;5087194;28;20221;-82
2023/07/08 02:59:06;;;;;;;0.52;0.52;;;23.70;93.40;;;;;;5105942;27;20192;-83
2023/07/08 03:01:41;;;;;;;0.30;0.30;;;23.70;93.30;;;;;;5117046;27;20198;-82
2023/07/08 03:04:12;;;;;;;1.88;0.57;;;23.70;93.30;;;;;;5102972;28;20561;-83
2023/07/08 03:06:41;;;;;;;0.85;0.85;;;23.70;93.50;;;;;;5101746;28;20197;-82
2023/07/08 03:09:11;;;;;;;0.40;0.40;;;23.70;93.40;;;;;;5095293;28;20233;-82
2023/07/08 03:11:41;;;;;;;0.68;0.40;;;23.70;93.30;;;;;;5099213;28;20193;-83
2023/07/08 03:14:09;;;;;;;2.75;0.47;;;23.80;93.40;;;;;;5089116;28;20186;-84
2023/07/08 03:16:39;;;;;;;1.33;0.73;;;23.80;93.40;;;;;;5091979;28;20225;-81
2023/07/08 03:19:11;;;;;;;0.20;0.20;;;23.80;93.70;;;;;;5109769;28;20223;-83
2023/07/08 03:21:39;;;;;;;0.60;0.60;;;23.80;93.30;;;;;;5121175;28;20188;-83
2023/07/08 03:24:10;;;;;;;0.30;0.30;;;23.80;93.30;;;;;;5109222;28;20215;-83
2023/07/08 03:26:39;;;;;;;3.25;0.90;;;23.80;93.30;;;;;;5122254;27;20672;-83
2023/07/08 03:29:14;;;;;;;0.73;0.73;;;23.80;93.30;;;;;;5107624;28;20561;-83
2023/07/08 03:31:44;;;;;;;0.50;0.40;;;23.80;93.30;;;;;;5098523;28;20559;-82
2023/07/08 03:34:12;;;;;;;0.30;0.30;;;23.80;93.30;;;;;;5094995;28;20272;-82
2023/07/08 03:36:48;;;;;;;4.63;1.38;;;23.80;93.30;;;;;;5120087;27;20590;-82
2023/07/08 03:39:17;;;;;;;0.45;0.40;;;23.80;93.20;;;;;;5099155;28;20184;-83
2023/07/08 03:41:47;;;;;;;0.30;0.30;;;23.90;93.30;;;;;;5100438;28;20267;-83
2023/07/08 03:44:16;;;;;;;0.50;0.50;;;23.90;93.20;;;;;;5094920;28;20689;-83
2023/07/08 03:46:47;;;;;;;0.55;0.52;;;23.90;93.40;;;;;;5124260;27;20476;-82
2023/07/08 03:49:16;;;;;;;0.63;0.63;;;23.90;93.40;;;;;;5102867;28;20288;-83
2023/07/08 03:51:45;;;;;;;0.20;0.20;;;23.90;93.40;;;;;;5118136;28;20688;-82
2023/07/08 03:54:15;;;;;;;1.27;1.17;;;24.00;93.40;;;;;;5099151;28;20209;-82
2023/07/08 03:56:43;;;;;;;1.30;0.95;;;23.90;93.70;;;;;;5106006;28;20218;-83
2023/07/08 03:59:11;;;;;;;0.25;0.25;;;23.90;93.80;;;;;;5105482;28;20205;-83
2023/07/08 04:01:41;;;;;;;0.65;0.65;;;23.90;93.80;;;;;;5109352;27;20634;-82
2023/07/08 04:04:14;;;;;;;4.05;1.55;;;23.80;93.60;;;;;;5116953;28;20188;-85
2023/07/08 04:06:44;;;;;;;0.70;0.47;;;23.70;93.40;;;;;;5112496;27;20198;-81
2023/07/08 04:09:13;;;;;;;0.30;0.30;;;23.60;93.50;;;;;;5093442;28;20236;-81
2023/07/08 04:11:41;;;;;;;0.47;0.40;;;23.60;93.50;;;;;;5108251;28;20198;-80
2023/07/08 04:14:10;;;;;;;0.60;0.50;;;23.50;93.50;;;;;;5091779;28;20197;-82
2023/07/08 04:16:46;;;;;;;0.50;0.50;;;23.50;93.50;;;;;;5109828;27;20311;-80
2023/07/08 04:19:16;;;;;;;0.55;0.35;;;23.50;93.50;;;;;;5105341;27;20701;-81
2023/07/08 04:21:46;;;;;;;0.20;0.20;;;23.40;93.50;;;;;;5096040;27;20196;-81
2023/07/08 04:24:16;;;;;;;1.42;0.73;;;23.40;93.50;;;;;;5110592;27;20198;-83
2023/07/08 04:26:47;;;;;;;0.30;0.30;;;23.30;94.00;;;;;;5117395;27;20185;-81
2023/07/08 04:29:17;;;;;;;0.77;0.30;;;23.30;94.20;;;;;;5109910;27;20182;-84
2023/07/08 04:31:46;;;;;;;0.30;0.30;;;23.20;94.50;;;;;;5112927;27;20276;-80
2023/07/08 04:34:16;;;;;;;0.47;0.47;;;23.20;94.70;;;;;;5103537;27;20193;-81
2023/07/08 04:36:45;;;;;;;1.20;0.30;;;23.20;94.90;;;;;;5115165;27;20209;-81
2023/07/08 04:39:15;;;;;;;0.30;0.30;;;23.10;94.80;;;;;;5095281;28;20209;-83
2023/07/08 04:41:43;;;;;;;0.70;0.52;;;23.10;94.90;;;;;;5112141;27;20667;-82
2023/07/08 04:44:12;;;;;;;0.47;0.47;;;23.10;95.10;;;;;;5111768;27;20200;-81
2023/07/08 04:46:45;;;;;;;0.30;0.30;;;23.10;95.00;;;;;;5106034;27;20204;-82
2023/07/08 04:49:15;;;;;;;0.88;0.50;;;23.10;95.10;;;;;;5110096;27;20232;-81
2023/07/08 04:51:44;;;;;;;1.13;0.50;;;23.10;95.10;;;;;;5108464;27;20200;-81
2023/07/08 04:54:13;;;;;;;0.75;0.40;;;23.10;95.20;;;;;;5093109;28;20196;-82
2023/07/08 04:56:44;;;;;;;1.17;0.75;;;23.10;95.10;;;;;;5113039;27;20300;-81
2023/07/08 04:59:14;;;;;;;1.13;0.50;;;23.20;95.20;;;;;;5109716;27;20194;-82
2023/07/08 05:01:43;;;;;;;1.35;0.88;;;23.20;95.20;;;;;;5111498;27;20212;-80
2023/07/08 05:04:17;;;;;;;0.63;0.40;;;23.30;95.40;;;;;;5117431;27;20187;-83
2023/07/08 05:06:46;;;;;;;0.82;0.63;;;23.30;95.40;;;;;;5118558;27;20199;-81
2023/07/08 05:09:15;;;;;;;0.68;0.55;;;23.30;95.40;;;;;;5096930;27;20225;-81
2023/07/08 05:11:45;;;;;;;0.88;0.85;;;23.40;95.50;;;;;;5087628;27;20188;-82
2023/07/08 05:14:14;;;;;;;0.65;0.50;;;23.40;95.70;;;;;;5095429;27;20189;-83
2023/07/08 05:16:42;;;;;;;0.30;0.30;;;23.50;95.80;;;;;;5098467;27;20682;-82
2023/07/08 05:19:10;;;;;;;0.30;0.30;;;23.50;96.00;;;;;;5116285;27;20288;-82
2023/07/08 05:21:40;;;;;;;0.38;0.38;;;23.50;96.20;;;;;;5102211;27;20197;-81
2023/07/08 05:24:09;;;;;;;1.77;1.15;;;23.60;96.30;;;;;;5116730;27;20672;-81
2023/07/08 05:26:37;;;;;;;1.85;1.10;;;23.60;96.20;;;;;;5116395;27;20200;-82
2023/07/08 05:29:06;;;;;;;2.45;1.35;;;23.60;96.50;;;;;;5092035;28;20189;-79
2023/07/08 05:31:35;;;;;;;0.60;0.45;;;23.60;96.60;;;;;;5114998;27;20651;-81
2023/07/08 05:34:06;;;;;;;0.73;0.40;;;23.60;96.50;;;;;;5111989;27;20185;-82
2023/07/08 05:36:35;;;;;;;1.15;0.50;;;23.60;96.40;;;;;;5107976;27;20225;-83
2023/07/08 05:39:05;;;;;;;0.88;0.77;;;23.70;96.60;;;;;;5099740;27;20284;-80
2023/07/08 05:41:34;;;;;;;1.95;0.85;;;23.60;96.40;;;;;;5113296;27;20193;-83
2023/07/08 05:44:02;;;;;;;0.43;0.43;;;23.60;96.20;;;;;;5101773;27;20204;-83
2023/07/08 05:46:31;;;;;;;0.47;0.40;;;23.70;96.30;;;;;;5106090;27;20320;-81
2023/07/08 05:48:59;;;;;;;0.30;0.30;;;23.70;96.20;;;;;;5117338;27;20188;-83
2023/07/08 05:51:29;;;;;;;0.45;0.28;;;23.70;96.20;;;;;;5124263;27;20702;-82
2023/07/08 05:53:57;;;;;;;0.60;0.50;;;23.70;96.20;;;;;;5101171;27;20198;-83
2023/07/08 05:56:27;;;;;;;1.25;0.60;;;23.70;96.10;;;;;;5101629;27;20217;-82
2023/07/08 05:58:55;;;;;;;0.88;0.65;;;23.70;96.00;;;;;;5103731;27;20193;-83
2023/07/08 06:01:24;;;;;;;0.25;0.25;;;23.70;95.90;;;;;;5130715;27;20641;-81
2023/07/08 06:03:52;;;;;;;0.93;0.30;;;23.70;95.70;;;;;;5112233;27;20589;-82
2023/07/08 06:06:21;;;;;;;0.88;0.60;;;23.70;95.50;;;;;;5106382;27;20321;-82
2023/07/08 06:08:49;;;;;;;0.80;0.50;;;23.70;95.20;;;;;;5091928;27;20229;-82
2023/07/08 06:11:17;;;;;;;1.30;0.80;;;23.70;95.10;;;;;;5116524;27;20196;-82
2023/07/08 06:13:47;;;;;;;0.55;0.55;;;23.70;94.90;;;;;;5094486;27;20198;-84
2023/07/08 06:16:16;;;;;;;0.57;0.50;;;23.70;94.70;;;;;;5116100;27;20279;-82
2023/07/08 06:18:58;;;;;;;0.30;0.20;;;23.70;94.70;;;;;;5106099;27;20285;-81
2023/07/08 06:21:27;;;;;;;0.43;0.40;;;23.70;94.70;;;;;;5099636;28;20190;-84
2023/07/08 06:23:55;;;;;;;0.40;0.30;;;23.70;94.60;;;;;;5092903;27;20198;-81
2023/07/08 06:26:24;;;;;;;0.28;0.25;;;23.70;94.60;;;;;;5091329;28;20200;-82
2023/07/08 06:28:54;;;;;;;0.68;0.63;;;23.70;94.50;;;;;;5113089;27;20197;-81
2023/07/08 06:31:22;;;;;;;17.48;2.00;;;23.70;94.40;;;;;;5098562;27;20189;-83
2023/07/08 06:33:52;;;;;;;0.30;0.30;;;23.70;94.30;;;;;;5111545;27;20265;-82
2023/07/08 06:36:20;;;;;;;0.20;0.20;;;23.70;94.00;;;;;;5100394;27;20189;-82
2023/07/08 06:38:49;;;;;;;1.05;0.40;;;23.70;93.80;;;;;;5099436;27;20218;-83
2023/07/08 06:41:17;;;;;;;0.90;0.70;;;23.70;93.80;;;;;;5115039;27;20581;-83
2023/07/08 06:43:47;;;;;;;0.20;0.20;;;23.80;93.90;;;;;;5118056;27;20207;-83
2023/07/08 06:46:18;;;;;;;0.50;0.50;;;23.80;93.90;;;;;;5107665;27;20193;-81
2023/07/08 06:48:47;;;;;;;1.45;0.40;;;23.80;93.70;;;;;;5098943;27;20562;-83
2023/07/08 06:51:16;;;;;;;0.28;0.28;;;23.80;93.80;;;;;;5095421;28;20186;-84
2023/07/08 06:53:44;;;;;;;0.85;0.85;;;23.90;93.70;;;;;;5098666;27;20205;-83
2023/07/08 06:56:13;;;;;;;0.20;0.20;;;24.00;93.50;;;;;;5110189;27;20275;-84
2023/07/08 06:58:41;;;;;;;0.28;0.28;;;24.00;93.60;;;;;;5091162;28;20300;-83
2023/07/08 07:01:10;;;;;;;0.20;0.20;;;24.00;93.10;;;;;;5101356;28;20241;-83
2023/07/08 07:03:40;;;;;;;0.40;0.40;;;24.00;93.10;;;;;;5093688;28;20280;-84
2023/07/08 07:06:09;;;;;;;0.40;0.40;;;24.00;93.00;;;;;;5106934;28;20204;-84
2023/07/08 07:08:37;;;;;;;0.43;0.30;;;24.00;93.00;;;;;;5107136;28;20904;-82
2023/07/08 07:11:05;;;;;;;4.28;0.32;;;24.10;93.10;;;;;;5090958;28;20672;-83
2023/07/08 07:13:34;;;;;;;0.20;0.20;;;24.10;93.10;;;;;;5094654;28;20693;-83
2023/07/08 07:16:02;;;;;;;1.65;0.47;;;24.20;93.00;;;;;;5090905;28;20198;-84
2023/07/08 07:18:31;;;;;;;0.30;0.30;;;24.20;93.00;;;;;;5103527;28;20717;-83
2023/07/08 07:21:01;;;;;;;1.13;0.32;;;24.30;93.10;;;;;;5092988;28;20197;-84
2023/07/08 07:23:29;;;;;;;0.20;0.20;;;24.40;93.10;;;;;;5089776;28;20204;-84
2023/07/08 07:25:58;;;;;;;2.05;1.30;;;24.50;93.30;;;;;;5090642;28;20200;-85
2023/07/08 07:28:27;;;;;;;0.52;0.30;;;24.50;93.00;;;;;;5094966;28;20200;-83
2023/07/08 07:30:59;;;;;;;0.50;0.50;;;24.60;92.70;;;;;;5088617;28;20209;-83
2023/07/08 07:33:28;;;;;;;1.23;0.32;;;24.70;92.40;;;;;;5102280;28;20325;-83
2023/07/08 07:35:56;;;;;;;0.40;0.40;;;24.80;92.40;;;;;;5092681;28;20639;-82
2023/07/08 07:38:28;;;;;;;0.32;0.32;;;24.90;92.40;;;;;;5089687;28;20221;-84
2023/07/08 07:40:59;;;;;;;2.28;0.93;;;24.90;92.40;;;;;;5090232;28;21095;-81
2023/07/08 07:43:28;;;;;;;0.43;0.43;;;25.10;92.40;;;;;;5090828;28;20193;-83
2023/07/08 07:45:56;;;;;;;0.82;0.40;;;25.20;91.90;;;;;;5102435;28;20186;-83
2023/07/08 07:48:26;;;;;;;0.38;0.28;;;25.40;92.00;;;;;;5098243;28;20864;-83
2023/07/08 07:50:54;;;;;;;0.20;0.20;;;25.50;91.90;;;;;;5093922;28;20289;-83
2023/07/08 07:53:23;;;;;;;0.28;0.28;;;25.60;91.60;;;;;;5093538;28;20602;-81
2023/07/08 07:55:59;;;;;;;1.67;0.95;;;25.70;91.20;;;;;;5093256;28;20190;-83
2023/07/08 07:58:28;;;;;;;1.15;0.55;;;25.80;90.70;;;;;;5094616;28;20213;-84
2023/07/08 08:00:56;;;;;;;2.92;1.23;;;25.90;90.20;;;;;;5108110;28;20203;-84
2023/07/08 08:03:25;;;;;;;0.30;0.30;;;25.90;90.20;;;;;;5095301;28;20259;-84
2023/07/08 08:05:54;;;;;;;1.13;0.80;;;26.00;89.50;;;;;;5094150;28;20205;-85
2023/07/08 08:08:23;;;;;;;0.40;0.30;;;26.10;88.40;;;;;;5091635;28;20690;-84
2023/07/08 08:10:51;;;;;;;0.30;0.30;;;26.10;88.50;;;;;;5092761;28;20201;-84
2023/07/08 08:13:21;;;;;;;0.65;0.45;;;26.20;88.80;;;;;;5092677;28;20658;-83
2023/07/08 08:15:49;;;;;;;0.88;0.60;;;26.30;84.70;;;;;;5109177;28;20284;-84
2023/07/08 08:18:18;;;;;;;0.43;0.43;;;26.30;84.00;;;;;;5095847;28;20236;-83
2023/07/08 08:20:46;;;;;;;0.43;0.43;;;26.40;80.30;;;;;;5094844;28;20193;-84
2023/07/08 08:23:14;;;;;;;0.60;0.60;;;26.40;80.10;;;;;;5097772;28;20200;-83
2023/07/08 08:25:43;;;;;;;1.35;1.25;;;26.50;77.70;;;;;;5106193;28;20203;-84
2023/07/08 08:28:12;;;;;;;0.43;0.40;;;26.50;77.40;;;;;;5100091;28;20560;-84
2023/07/08 08:30:41;;;;;;;0.45;0.43;;;26.60;77.50;;;;;;5096147;28;20660;-83
2023/07/08 08:33:10;;;;;;;0.38;0.30;;;26.60;76.80;;;;;;5094409;28;20292;-83
2023/07/08 08:35:38;;;;;;;0.30;0.30;;;26.60;74.90;;;;;;5107207;28;20250;-84
2023/07/08 08:38:07;;;;;;;1.38;0.63;;;26.70;75.00;;;;;;5100378;28;20213;-84
2023/07/08 08:40:36;;;;;;;0.57;0.55;;;26.70;75.70;;;;;;5093861;28;20652;-83
2023/07/08 08:43:08;;;;;;;0.40;0.40;;;26.70;73.60;;;;;;5092134;28;20201;-83
2023/07/08 08:45:43;;;;;;;1.75;0.68;;;26.80;73.60;;;;;;5095833;28;20197;-83
2023/07/08 08:48:16;;;;;;;0.50;0.40;;;26.80;74.50;;;;;;5093148;28;20198;-83
2023/07/08 08:50:52;;;;;;;0.40;0.30;;;26.80;71.80;;;;;;5093913;28;20198;-83
2023/07/08 08:53:23;;;;;;;0.35;0.30;;;26.90;73.30;;;;;;5093027;28;20209;-82
2023/07/08 08:55:58;;;;;;;0.30;0.30;;;26.90;69.30;;;;;;5093088;28;20196;-84
2023/07/08 08:58:36;;;;;;;0.20;0.20;;;27.00;69.60;;;;;;5093322;28;20240;-84
2023/07/08 09:01:12;;;;;;;0.43;0.43;;;27.00;68.80;;;;;;5108599;28;20548;-83
2023/07/08 09:03:47;;;;;;;1.50;0.85;;;27.10;67.10;;;;;;5093349;27;20193;-84
2023/07/08 09:06:19;;;;;;;0.50;0.40;;;27.10;66.70;;;;;;5092447;28;20188;-84
2023/07/08 09:08:48;;;;;;;0.43;0.32;;;27.20;66.00;;;;;;5094041;28;20226;-83
2023/07/08 09:11:28;;;;;;;0.90;0.30;;;27.30;66.90;;;;;;5092379;28;20206;-84
2023/07/08 09:13:57;;;;;;;0.35;0.35;;;27.30;65.00;;;;;;5100416;28;20240;-85
2023/07/08 09:16:43;;;;;;;0.73;0.28;;;27.30;65.80;;;;;;5095706;27;20198;-84
2023/07/08 09:19:15;;;;;;;0.50;0.45;;;27.30;65.20;;;;;;5091349;28;20694;-83
2023/07/08 09:21:50;;;;;;;0.40;0.40;;;27.40;66.50;;;;;;5127474;27;20550;-83
2023/07/08 09:24:30;;;;;;;0.73;0.57;;;27.50;66.60;;;;;;5093087;28;20280;-85
2023/07/08 09:27:00;;;;;;;3.42;1.45;;;27.50;66.40;;;;;;5092403;28;20589;-84
2023/07/08 09:29:29;;;;;;;0.55;0.45;;;27.50;66.70;;;;;;5102820;28;20342;-83
2023/07/08 09:31:59;;;;;;;0.77;0.77;;;27.50;65.80;;;;;;5091509;28;20192;-84
2023/07/08 09:34:39;;;;;;;0.20;0.20;;;27.40;65.20;;;;;;5092497;28;20186;-85
2023/07/08 09:37:25;;;;;;;0.40;0.40;;;27.50;64.30;;;;;;5091136;28;20602;-86
2023/07/08 09:39:54;;;;;;;0.50;0.40;;;27.50;64.70;;;;;;5091489;28;20297;-85
2023/07/08 09:42:26;;;;;;;0.40;0.40;;;27.50;65.00;;;;;;5091214;28;20197;-83
2023/07/08 09:44:56;;;;;;;0.38;0.38;;;27.50;65.70;;;;;;5103028;28;20207;-84
2023/07/08 09:47:30;;;;;;;0.57;0.45;;;27.50;65.70;;;;;;5104581;28;20533;-84
2023/07/08 09:49:59;;;;;;;5.00;1.02;;;27.50;63.90;;;;;;5092672;28;20232;-84
2023/07/08 09:52:31;;;;;;;1.10;0.65;;;27.50;62.70;;;;;;5092510;28;20201;-84
2023/07/08 09:54:59;;;;;;;5.82;0.68;;;27.40;61.70;;;;;;5097288;28;20182;-84
2023/07/08 09:57:30;;;;;;;0.57;0.57;;;27.50;62.60;;;;;;5103549;28;20186;-83
2023/07/08 10:00:02;;;;;;;0.38;0.38;;;27.40;61.80;;;;;;5105513;28;20681;-83
2023/07/08 10:02:47;;;;;;;0.45;0.43;;;27.50;62.00;;;;;;5104289;28;20186;-84
2023/07/08 10:05:20;;;;;;;1.15;0.45;;;27.50;62.40;;;;;;5091683;28;20213;-84
2023/07/08 10:07:52;;;;;;;1.40;0.95;;;27.50;62.30;;;;;;5091912;28;20229;-84
2023/07/08 10:10:27;;;;;;;0.32;0.32;;;27.60;62.50;;;;;;5090441;28;20194;-83
2023/07/08 10:12:59;;;;;;;0.68;0.68;;;27.50;61.40;;;;;;5090158;28;20189;-84
2023/07/08 10:15:33;;;;;;;0.38;0.38;;;27.60;62.40;;;;;;5098276;28;20192;-86
2023/07/08 10:18:03;;;;;;;0.65;0.60;;;27.70;61.20;;;;;;5099406;28;20192;-85
2023/07/08 10:20:43;;;;;;;0.45;0.45;;;27.70;59.20;;;;;;5091642;28;20217;-85
2023/07/08 10:23:24;;;;;;;1.42;0.47;;;27.70;60.00;;;;;;5093106;28;20277;-83
2023/07/08 10:26:01;;;;;;;1.13;0.60;;;27.80;60.70;;;;;;5091031;28;20506;-85
2023/07/08 10:28:38;;;;;;;0.32;0.32;;;27.90;60.90;;;;;;5104104;28;20193;-84
2023/07/08 10:31:17;;;;;;;0.75;0.55;;;28.00;61.30;;;;;;5093107;27;20227;-84
2023/07/08 10:33:59;;;;;;;1.13;0.60;;;28.00;60.00;;;;;;5090032;28;20205;-84
2023/07/08 10:36:44;;;;;;;1.48;0.57;;;28.10;59.70;;;;;;5098450;28;20193;-83
2023/07/08 10:39:40;;;;;;;0.25;0.25;;;28.20;60.80;;;;;;5097491;27;20290;-84
2023/07/08 10:42:21;;;;;;;0.40;0.40;;;28.30;60.20;;;;;;5100196;28;20190;-83
2023/07/08 10:44:59;;;;;;;1.08;0.65;;;28.30;59.50;;;;;;5130761;27;20289;-85
2023/07/08 10:47:42;;;;;;;3.92;1.23;;;28.40;58.50;;;;;;5113578;27;20196;-84
2023/07/08 10:50:40;;;;;;;1.23;1.15;;;28.40;57.80;;;;;;5109850;27;20193;-84
2023/07/08 10:53:27;;;;;;;0.45;0.38;;;28.40;57.20;;;;;;5092841;28;20197;-87
2023/07/08 10:55:59;;;;;;;0.30;0.30;;;28.40;56.80;;;;;;5097820;27;20193;-84
2023/07/08 10:58:57;;;;;;;2.10;1.85;;;28.40;57.00;;;;;;5101225;27;20597;-85
2023/07/08 11:01:36;;;;;;;1.20;0.68;;;28.40;56.90;;;;;;5093066;28;20197;-83
2023/07/08 11:04:19;;;;;;;0.30;0.30;;;28.50;57.80;;;;;;5098208;28;20186;-86
2023/07/08 11:06:53;;;;;;;0.98;0.30;;;28.50;57.00;;;;;;5091395;28;20226;-84
2023/07/08 11:09:28;;;;;;;0.45;0.45;;;28.60;56.80;;;;;;5101203;28;20225;-86
2023/07/08 11:12:01;;;;;;;0.88;0.45;;;28.60;56.40;;;;;;5094881;28;20274;-85
2023/07/08 11:14:38;;;;;;;1.55;0.52;;;28.70;56.40;;;;;;5094045;28;20286;-81
2023/07/08 11:17:18;;;;;;;0.45;0.28;;;28.70;56.90;;;;;;5091201;28;20201;-82
2023/07/08 11:19:54;;;;;;;0.70;0.63;;;28.70;56.40;;;;;;5101481;28;20233;-82
2023/07/08 11:22:27;;;;;;;0.95;0.50;;;28.80;56.40;;;;;;5095888;27;20212;-85
2023/07/08 11:24:59;;;;;;;1.15;0.88;;;28.80;55.60;;;;;;5103598;27;20226;-84
2023/07/08 11:27:32;;;;;;;0.55;0.55;;;28.90;54.70;;;;;;5099122;27;20186;-84
2023/07/08 11:30:07;;;;;;;0.60;0.60;;;28.90;55.00;;;;;;5103671;28;20192;-83
2023/07/08 11:32:37;;;;;;;0.63;0.63;;;28.90;54.70;;;;;;5115537;27;20200;-84
2023/07/08 11:35:08;;;;;;;0.80;0.45;;;28.90;55.30;;;;;;5091516;27;20193;-84
2023/07/08 11:37:38;;;;;;;0.30;0.30;;;29.00;55.30;;;;;;5111631;27;20207;-84
2023/07/08 11:40:10;;;;;;;1.20;0.68;;;29.00;55.40;;;;;;5101690;27;20220;-84
2023/07/08 11:42:43;;;;;;;1.13;0.40;;;29.00;53.80;;;;;;5097563;27;20192;-85
2023/07/08 11:45:26;;;;;;;0.50;0.38;;;29.10;53.90;;;;;;5097274;28;20189;-83
2023/07/08 11:48:12;;;;;;;1.17;0.68;;;29.20;54.10;;;;;;5102927;28;20193;-85
2023/07/08 11:50:44;;;;;;;0.45;0.45;;;29.20;54.40;;;;;;5097459;27;20201;-81
2023/07/08 11:53:33;;;;;;;1.35;0.65;;;29.20;53.20;;;;;;5098517;27;20239;-80
2023/07/08 11:56:04;;;;;;;0.35;0.30;;;29.30;53.70;;;;;;5092980;28;20214;-84
2023/07/08 11:58:50;;;;;;;0.10;0.10;;;29.30;53.50;;;;;;5090777;27;20189;-85
2023/07/08 12:01:25;;;;;;;0.38;0.32;;;29.30;52.00;;;;;;5102051;27;20213;-86
2023/07/08 12:04:00;;;;;;;0.70;0.50;;;29.40;51.80;;;;;;5103063;27;20195;-85
2023/07/08 12:06:48;;;;;;;3.63;0.75;;;29.40;51.20;;;;;;5109954;28;20220;-87
2023/07/08 12:09:30;;;;;;;0.50;0.50;;;29.30;50.10;;;;;;5098624;27;20216;-86
2023/07/08 12:12:00;;;;;;;0.50;0.32;;;29.40;50.10;;;;;;5103921;27;20190;-85
2023/07/08 12:14:30;;;;;;;3.03;0.30;;;29.50;51.30;;;;;;5093465;27;20181;-86
2023/07/08 12:16:59;;;;;;;0.30;0.30;;;29.50;51.00;;;;;;5103602;27;20193;-85
2023/07/08 12:19:31;;;;;;;2.70;0.75;;;29.50;51.40;;;;;;5098284;27;20632;-84
2023/07/08 12:22:05;;;;;;;0.93;0.70;;;29.60;51.10;;;;;;5098256;27;20196;-87
2023/07/08 12:24:35;;;;;;;0.30;0.30;;;29.60;51.40;;;;;;5106204;28;20249;-87
2023/07/08 12:27:07;;;;;;;1.70;1.05;;;29.70;51.60;;;;;;5092893;28;20227;-87
2023/07/08 12:29:35;;;;;;;0.30;0.20;;;29.70;51.10;;;;;;5092302;28;20692;-85
2023/07/08 12:32:05;;;;;;;0.60;0.60;;;29.60;50.50;;;;;;5104681;28;20193;-83
2023/07/08 12:34:34;;;;;;;0.30;0.30;;;29.70;51.20;;;;;;5102180;28;20185;-83
2023/07/08 12:37:03;;;;;;;0.30;0.30;;;29.60;50.80;;;;;;5101708;27;20194;-81
2023/07/08 12:39:35;;;;;;;0.35;0.35;;;29.70;51.10;;;;;;5125869;27;20197;-86
2023/07/08 12:42:11;;;;;;;0.30;0.30;;;29.70;51.30;;;;;;5094811;28;20208;-85
2023/07/08 12:44:43;;;;;;;0.80;0.55;;;29.60;50.70;;;;;;5092885;28;20671;-84
2023/07/08 12:47:12;;;;;;;1.50;1.05;;;29.60;50.20;;;;;;5096429;27;20196;-85
2023/07/08 12:49:40;;;;;;;0.30;0.30;;;29.60;51.20;;;;;;5118682;27;20649;-86
2023/07/08 12:52:20;;;;;;;1.15;0.60;;;29.60;51.60;;;;;;5104741;27;20190;-84
2023/07/08 12:54:51;;;;;;;3.72;0.88;;;29.60;51.30;;;;;;5091231;27;20602;-85
2023/07/08 12:57:20;;;;;;;0.30;0.30;;;29.60;52.10;;;;;;5096686;28;20189;-85
2023/07/08 12:59:48;;;;;;;0.30;0.30;;;29.60;51.50;;;;;;5110785;27;20193;-86
2023/07/08 13:02:20;;;;;;;0.70;0.70;;;29.60;51.30;;;;;;5105480;28;20213;-85
2023/07/08 13:04:54;;;;;;;3.38;1.40;;;29.70;51.70;;;;;;5109243;27;20198;-84
2023/07/08 13:07:29;;;;;;;0.30;0.30;;;29.60;51.10;;;;;;5103094;28;20186;-85
2023/07/08 13:10:00;;;;;;;0.35;0.30;;;29.70;51.80;;;;;;5111428;27;20192;-86